sensor_id;sensor_type;location;lat;lon;timestamp;temperature;humidity
66343;DHT22;53144;51.524;5.080;2022-09-13T00:01:48;16.95;88.25
66343;DHT22;53144;51.524;5.080;2022-09-13T00:04:14;17.06;87.00
66343;DHT22;53144;51.524;5.080;2022-09-13T00:06:39;17.08;88.28
66343;DHT22;53144;51.524;5.080;2022-09-13T00:09:05;17.03;88.50
66343;DHT22;53144;51.524;5.080;2022-09-13T00:11:30;17.07;88.50
66343;DHT22;53144;51.524;5.080;2022-09-13T00:13:56;17.01;89.06
66343;DHT22;53144;51.524;5.080;2022-09-13T00:16:25;16.97;89.62
66343;DHT22;53144;51.524;5.080;2022-09-13T00:18:52;17.00;88.08
66343;DHT22;53144;51.524;5.080;2022-09-13T00:21:19;16.97;89.35
66343;DHT22;53144;51.524;5.080;2022-09-13T00:23:48;17.00;88.44
66343;DHT22;53144;51.524;5.080;2022-09-13T00:26:17;17.06;87.56
66343;DHT22;53144;51.524;5.080;2022-09-13T00:28:48;17.11;86.79
66343;DHT22;53144;51.524;5.080;2022-09-13T00:31:14;17.15;87.12
66343;DHT22;53144;51.524;5.080;2022-09-13T00:33:39;17.25;86.41
66343;DHT22;53144;51.524;5.080;2022-09-13T00:36:07;17.32;85.72
66343;DHT22;53144;51.524;5.080;2022-09-13T00:38:37;17.39;85.39
66343;DHT22;53144;51.524;5.080;2022-09-13T00:41:09;17.51;84.56
66343;DHT22;53144;51.524;5.080;2022-09-13T00:43:52;17.56;86.22
66343;DHT22;53144;51.524;5.080;2022-09-13T00:48:45;17.46;86.36
66343;DHT22;53144;51.524;5.080;2022-09-13T00:51:12;17.28;87.89
66343;DHT22;53144;51.524;5.080;2022-09-13T00:53:40;17.24;87.08
66343;DHT22;53144;51.524;5.080;2022-09-13T00:56:23;17.18;88.26
66343;DHT22;53144;51.524;5.080;2022-09-13T00:58:56;17.13;88.05
66343;DHT22;53144;51.524;5.080;2022-09-13T01:01:28;16.97;89.63
66343;DHT22;53144;51.524;5.080;2022-09-13T01:03:55;16.90;89.05
66343;DHT22;53144;51.524;5.080;2022-09-13T01:06:27;16.88;89.79
66343;DHT22;53144;51.524;5.080;2022-09-13T01:08:55;16.91;88.64
66343;DHT22;53144;51.524;5.080;2022-09-13T01:14:06;17.08;85.62
66343;DHT22;53144;51.524;5.080;2022-09-13T01:16:33;17.07;87.49
66343;DHT22;53144;51.524;5.080;2022-09-13T01:18:58;17.10;86.97
66343;DHT22;53144;51.524;5.080;2022-09-13T01:27:18;17.22;85.57
66343;DHT22;53144;51.524;5.080;2022-09-13T01:33:03;17.27;85.58
66343;DHT22;53144;51.524;5.080;2022-09-13T01:35:39;17.21;86.73
66343;DHT22;53144;51.524;5.080;2022-09-13T01:46:04;17.14;87.75
66343;DHT22;53144;51.524;5.080;2022-09-13T01:48:48;17.11;88.08
66343;DHT22;53144;51.524;5.080;2022-09-13T01:51:25;17.06;88.83
66343;DHT22;53144;51.524;5.080;2022-09-13T01:54:18;16.99;90.24
66343;DHT22;53144;51.524;5.080;2022-09-13T01:56:57;16.97;90.06
66343;DHT22;53144;51.524;5.080;2022-09-13T01:59:42;17.00;89.51
66343;DHT22;53144;51.524;5.080;2022-09-13T02:02:22;17.06;89.40
66343;DHT22;53144;51.524;5.080;2022-09-13T02:04:53;17.11;89.22
66343;DHT22;53144;51.524;5.080;2022-09-13T02:07:29;17.14;89.27
66343;DHT22;53144;51.524;5.080;2022-09-13T02:09:59;17.17;89.49
66343;DHT22;53144;51.524;5.080;2022-09-13T02:12:28;17.07;90.75
66343;DHT22;53144;51.524;5.080;2022-09-13T02:17:36;17.06;90.21
66343;DHT22;53144;51.524;5.080;2022-09-13T02:20:11;17.14;89.47
66343;DHT22;53144;51.524;5.080;2022-09-13T02:22:42;17.14;89.61
66343;DHT22;53144;51.524;5.080;2022-09-13T02:25:16;17.15;89.44
66343;DHT22;53144;51.524;5.080;2022-09-13T02:27:48;17.14;88.79
66343;DHT22;53144;51.524;5.080;2022-09-13T02:30:16;17.13;88.29
66343;DHT22;53144;51.524;5.080;2022-09-13T02:35:35;17.36;85.56
66343;DHT22;53144;51.524;5.080;2022-09-13T02:38:11;17.38;85.76
66343;DHT22;53144;51.524;5.080;2022-09-13T02:40:45;17.39;85.67
66343;DHT22;53144;51.524;5.080;2022-09-13T02:43:22;17.38;86.28
66343;DHT22;53144;51.524;5.080;2022-09-13T02:46:05;17.45;85.41
66343;DHT22;53144;51.524;5.080;2022-09-13T02:48:44;17.44;85.28
66343;DHT22;53144;51.524;5.080;2022-09-13T02:54:14;17.44;86.00
66343;DHT22;53144;51.524;5.080;2022-09-13T02:57:04;17.38;86.95
66343;DHT22;53144;51.524;5.080;2022-09-13T02:59:33;17.28;88.59
66343;DHT22;53144;51.524;5.080;2022-09-13T03:02:06;17.30;87.38
66343;DHT22;53144;51.524;5.080;2022-09-13T03:04:34;17.42;85.73
66343;DHT22;53144;51.524;5.080;2022-09-13T03:07:00;17.48;85.57
66343;DHT22;53144;51.524;5.080;2022-09-13T03:09:28;17.44;86.41
66343;DHT22;53144;51.524;5.080;2022-09-13T03:12:23;17.30;88.43
66343;DHT22;53144;51.524;5.080;2022-09-13T03:15:09;17.21;87.55
66343;DHT22;53144;51.524;5.080;2022-09-13T03:17:45;17.21;88.30
66343;DHT22;53144;51.524;5.080;2022-09-13T03:20:35;17.18;89.17
66343;DHT22;53144;51.524;5.080;2022-09-13T03:35:56;17.03;90.47
66343;DHT22;53144;51.524;5.080;2022-09-13T03:38:08;17.04;90.30
66343;DHT22;53144;51.524;5.080;2022-09-13T03:40:47;16.94;90.62
66343;DHT22;53144;51.524;5.080;2022-09-13T03:43:25;16.93;90.18
66343;DHT22;53144;51.524;5.080;2022-09-13T03:45:55;17.00;90.08
66343;DHT22;53144;51.524;5.080;2022-09-13T03:48:25;17.06;89.65
66343;DHT22;53144;51.524;5.080;2022-09-13T03:50:52;17.14;88.42
66343;DHT22;53144;51.524;5.080;2022-09-13T03:53:23;17.31;87.28
66343;DHT22;53144;51.524;5.080;2022-09-13T03:55:49;17.34;87.60
66343;DHT22;53144;51.524;5.080;2022-09-13T03:58:20;17.34;87.54
66343;DHT22;53144;51.524;5.080;2022-09-13T04:00:46;17.31;88.33
66343;DHT22;53144;51.524;5.080;2022-09-13T04:03:12;17.08;91.29
66343;DHT22;53144;51.524;5.080;2022-09-13T04:05:40;17.13;89.67
66343;DHT22;53144;51.524;5.080;2022-09-13T04:08:08;17.13;89.07
66343;DHT22;53144;51.524;5.080;2022-09-13T04:10:35;17.21;88.01
66343;DHT22;53144;51.524;5.080;2022-09-13T04:13:03;17.10;90.57
66343;DHT22;53144;51.524;5.080;2022-09-13T04:15:29;16.95;90.75
66343;DHT22;53144;51.524;5.080;2022-09-13T04:17:55;16.94;89.94
66343;DHT22;53144;51.524;5.080;2022-09-13T04:20:21;16.93;89.26
66343;DHT22;53144;51.524;5.080;2022-09-13T04:22:53;16.94;89.89
66343;DHT22;53144;51.524;5.080;2022-09-13T04:25:20;16.84;90.12
66343;DHT22;53144;51.524;5.080;2022-09-13T04:27:46;16.63;91.38
66343;DHT22;53144;51.524;5.080;2022-09-13T04:30:14;16.62;90.32
66343;DHT22;53144;51.524;5.080;2022-09-13T04:32:45;16.74;90.40
66343;DHT22;53144;51.524;5.080;2022-09-13T04:35:11;16.63;91.12
66343;DHT22;53144;51.524;5.080;2022-09-13T04:37:40;16.43;92.30
66343;DHT22;53144;51.524;5.080;2022-09-13T04:40:06;16.45;91.76
66343;DHT22;53144;51.524;5.080;2022-09-13T04:42:32;16.48;91.29
66343;DHT22;53144;51.524;5.080;2022-09-13T04:44:58;16.48;91.36
66343;DHT22;53144;51.524;5.080;2022-09-13T04:47:23;16.48;92.12
66343;DHT22;53144;51.524;5.080;2022-09-13T04:49:49;16.43;92.01
66343;DHT22;53144;51.524;5.080;2022-09-13T04:52:14;16.45;92.13
66343;DHT22;53144;51.524;5.080;2022-09-13T04:54:39;16.48;92.17
66343;DHT22;53144;51.524;5.080;2022-09-13T04:57:05;16.48;92.37
66343;DHT22;53144;51.524;5.080;2022-09-13T04:59:30;16.43;92.67
66343;DHT22;53144;51.524;5.080;2022-09-13T05:01:56;16.45;92.18
66343;DHT22;53144;51.524;5.080;2022-09-13T05:04:21;16.48;92.26
66343;DHT22;53144;51.524;5.080;2022-09-13T05:06:47;16.52;92.54
66343;DHT22;53144;51.524;5.080;2022-09-13T05:09:20;16.46;93.21
66343;DHT22;53144;51.524;5.080;2022-09-13T05:11:45;16.46;93.09
66343;DHT22;53144;51.524;5.080;2022-09-13T05:14:15;16.46;93.29
66343;DHT22;53144;51.524;5.080;2022-09-13T05:16:41;16.41;93.40
66343;DHT22;53144;51.524;5.080;2022-09-13T05:19:08;16.36;93.01
66343;DHT22;53144;51.524;5.080;2022-09-13T05:21:33;16.39;92.96
66343;DHT22;53144;51.524;5.080;2022-09-13T05:23:59;16.48;92.66
66343;DHT22;53144;51.524;5.080;2022-09-13T05:26:26;16.43;93.58
66343;DHT22;53144;51.524;5.080;2022-09-13T05:28:55;16.46;92.65
66343;DHT22;53144;51.524;5.080;2022-09-13T05:31:23;16.55;92.58
66343;DHT22;53144;51.524;5.080;2022-09-13T05:33:55;16.64;91.90
66343;DHT22;53144;51.524;5.080;2022-09-13T05:36:21;16.62;92.98
66343;DHT22;53144;51.524;5.080;2022-09-13T05:38:47;16.60;93.62
66343;DHT22;53144;51.524;5.080;2022-09-13T05:41:15;16.59;93.42
66343;DHT22;53144;51.524;5.080;2022-09-13T05:43:43;16.60;93.85
66343;DHT22;53144;51.524;5.080;2022-09-13T05:46:11;16.62;93.38
66343;DHT22;53144;51.524;5.080;2022-09-13T05:48:37;16.63;93.60
66343;DHT22;53144;51.524;5.080;2022-09-13T05:51:05;16.64;93.58
66343;DHT22;53144;51.524;5.080;2022-09-13T05:53:32;16.62;93.90
66343;DHT22;53144;51.524;5.080;2022-09-13T05:55:57;16.64;93.98
66343;DHT22;53144;51.524;5.080;2022-09-13T05:58:23;16.70;94.03
66343;DHT22;53144;51.524;5.080;2022-09-13T06:00:56;16.77;93.30
66343;DHT22;53144;51.524;5.080;2022-09-13T06:03:22;16.81;93.09
66343;DHT22;53144;51.524;5.080;2022-09-13T06:05:48;16.88;93.03
66343;DHT22;53144;51.524;5.080;2022-09-13T06:08:13;16.91;92.73
66343;DHT22;53144;51.524;5.080;2022-09-13T06:10:39;16.94;93.74
66343;DHT22;53144;51.524;5.080;2022-09-13T06:13:05;16.95;93.52
66343;DHT22;53144;51.524;5.080;2022-09-13T06:15:30;17.10;92.81
66343;DHT22;53144;51.524;5.080;2022-09-13T06:17:56;17.14;91.94
66343;DHT22;53144;51.524;5.080;2022-09-13T06:20:21;17.10;91.38
66343;DHT22;53144;51.524;5.080;2022-09-13T06:22:47;17.10;90.87
66343;DHT22;53144;51.524;5.080;2022-09-13T06:25:13;17.10;90.53
66343;DHT22;53144;51.524;5.080;2022-09-13T06:27:38;17.10;90.29
66343;DHT22;53144;51.524;5.080;2022-09-13T06:30:04;17.08;92.08
66343;DHT22;53144;51.524;5.080;2022-09-13T06:32:33;17.07;92.29
66343;DHT22;53144;51.524;5.080;2022-09-13T06:34:58;17.14;92.36
66343;DHT22;53144;51.524;5.080;2022-09-13T06:37:24;17.18;92.26
66343;DHT22;53144;51.524;5.080;2022-09-13T06:39:49;17.30;91.98
66343;DHT22;53144;51.524;5.080;2022-09-13T06:42:15;17.30;91.82
66343;DHT22;53144;51.524;5.080;2022-09-13T06:44:40;17.38;92.00
66343;DHT22;53144;51.524;5.080;2022-09-13T06:47:06;17.48;91.96
66343;DHT22;53144;51.524;5.080;2022-09-13T06:49:31;17.55;91.77
66343;DHT22;53144;51.524;5.080;2022-09-13T06:51:57;17.63;91.60
66343;DHT22;53144;51.524;5.080;2022-09-13T06:54:28;17.76;91.59
66343;DHT22;53144;51.524;5.080;2022-09-13T06:56:54;17.87;91.48
66343;DHT22;53144;51.524;5.080;2022-09-13T06:59:19;17.94;91.12
66343;DHT22;53144;51.524;5.080;2022-09-13T07:01:45;17.99;90.52
66343;DHT22;53144;51.524;5.080;2022-09-13T07:04:15;18.00;90.57
66343;DHT22;53144;51.524;5.080;2022-09-13T07:06:46;18.00;90.60
66343;DHT22;53144;51.524;5.080;2022-09-13T07:09:20;18.04;90.88
66343;DHT22;53144;51.524;5.080;2022-09-13T07:11:46;18.10;90.75
66343;DHT22;53144;51.524;5.080;2022-09-13T07:14:14;18.16;90.71
66343;DHT22;53144;51.524;5.080;2022-09-13T07:16:40;18.21;90.46
66343;DHT22;53144;51.524;5.080;2022-09-13T07:19:09;18.24;90.10
66343;DHT22;53144;51.524;5.080;2022-09-13T07:21:36;18.41;89.73
66343;DHT22;53144;51.524;5.080;2022-09-13T07:24:02;18.54;89.02
66343;DHT22;53144;51.524;5.080;2022-09-13T07:26:28;18.60;88.77
66343;DHT22;53144;51.524;5.080;2022-09-13T07:28:57;18.68;88.61
66343;DHT22;53144;51.524;5.080;2022-09-13T07:31:29;18.76;87.21
66343;DHT22;53144;51.524;5.080;2022-09-13T07:34:00;18.81;87.69
66343;DHT22;53144;51.524;5.080;2022-09-13T07:36:27;18.88;86.55
66343;DHT22;53144;51.524;5.080;2022-09-13T07:38:54;18.92;87.47
66343;DHT22;53144;51.524;5.080;2022-09-13T07:41:21;18.96;86.60
66343;DHT22;53144;51.524;5.080;2022-09-13T07:43:47;19.00;86.89
66343;DHT22;53144;51.524;5.080;2022-09-13T07:46:18;19.12;86.39
66343;DHT22;53144;51.524;5.080;2022-09-13T07:48:45;19.15;86.81
66343;DHT22;53144;51.524;5.080;2022-09-13T07:51:19;19.26;86.06
66343;DHT22;53144;51.524;5.080;2022-09-13T07:53:46;19.34;86.11
66343;DHT22;53144;51.524;5.080;2022-09-13T07:56:20;19.50;85.59
66343;DHT22;53144;51.524;5.080;2022-09-13T07:58:47;19.60;84.86
66343;DHT22;53144;51.524;5.080;2022-09-13T08:01:17;19.68;84.24
66343;DHT22;53144;51.524;5.080;2022-09-13T08:03:44;19.79;85.15
66343;DHT22;53144;51.524;5.080;2022-09-13T08:06:09;19.94;83.83
66343;DHT22;53144;51.524;5.080;2022-09-13T08:08:36;20.11;84.20
66343;DHT22;53144;51.524;5.080;2022-09-13T08:11:03;20.19;83.34
66343;DHT22;53144;51.524;5.080;2022-09-13T08:13:29;20.28;82.89
66343;DHT22;53144;51.524;5.080;2022-09-13T08:16:00;20.33;83.05
66343;DHT22;53144;51.524;5.080;2022-09-13T08:18:25;20.43;82.94
66343;DHT22;53144;51.524;5.080;2022-09-13T08:20:55;20.47;81.63
66343;DHT22;53144;51.524;5.080;2022-09-13T08:23:20;20.57;82.33
66343;DHT22;53144;51.524;5.080;2022-09-13T08:25:46;20.59;83.12
66343;DHT22;53144;51.524;5.080;2022-09-13T08:28:16;20.65;82.57
66343;DHT22;53144;51.524;5.080;2022-09-13T08:30:42;20.74;82.14
66343;DHT22;53144;51.524;5.080;2022-09-13T08:33:10;20.76;81.07
66343;DHT22;53144;51.524;5.080;2022-09-13T08:35:36;20.84;81.95
66343;DHT22;53144;51.524;5.080;2022-09-13T08:38:04;20.98;80.29
66343;DHT22;53144;51.524;5.080;2022-09-13T08:40:32;21.01;80.91
66343;DHT22;53144;51.524;5.080;2022-09-13T08:43:16;21.12;81.10
66343;DHT22;53144;51.524;5.080;2022-09-13T08:45:58;21.25;80.44
66343;DHT22;53144;51.524;5.080;2022-09-13T08:48:35;21.30;80.41
66343;DHT22;53144;51.524;5.080;2022-09-13T08:51:05;21.38;79.55
66343;DHT22;53144;51.524;5.080;2022-09-13T08:53:43;21.44;79.38
66343;DHT22;53144;51.524;5.080;2022-09-13T08:56:34;21.58;79.36
66343;DHT22;53144;51.524;5.080;2022-09-13T09:04:36;21.48;79.59
66343;DHT22;53144;51.524;5.080;2022-09-13T09:07:41;21.48;79.77
66343;DHT22;53144;51.524;5.080;2022-09-13T09:10:19;21.62;79.84
66343;DHT22;53144;51.524;5.080;2022-09-13T09:18:11;21.90;77.55
66343;DHT22;53144;51.524;5.080;2022-09-13T09:20:49;21.89;77.52
66343;DHT22;53144;51.524;5.080;2022-09-13T09:23:20;21.90;77.85
66343;DHT22;53144;51.524;5.080;2022-09-13T09:25:46;21.99;77.82
66343;DHT22;53144;51.524;5.080;2022-09-13T09:28:14;21.93;78.39
66343;DHT22;53144;51.524;5.080;2022-09-13T09:31:01;21.93;78.41
66343;DHT22;53144;51.524;5.080;2022-09-13T09:33:41;22.07;78.75
66343;DHT22;53144;51.524;5.080;2022-09-13T09:36:25;22.29;79.53
66343;DHT22;53144;51.524;5.080;2022-09-13T09:38:53;22.48;78.04
66343;DHT22;53144;51.524;5.080;2022-09-13T09:44:28;22.43;77.82
66343;DHT22;53144;51.524;5.080;2022-09-13T09:47:17;22.47;77.71
66343;DHT22;53144;51.524;5.080;2022-09-13T09:49:46;22.34;77.75
66343;DHT22;53144;51.524;5.080;2022-09-13T09:55:41;22.36;77.96
66343;DHT22;53144;51.524;5.080;2022-09-13T09:58:12;22.36;78.19
66343;DHT22;53144;51.524;5.080;2022-09-13T10:00:55;22.57;77.65
66343;DHT22;53144;51.524;5.080;2022-09-13T10:03:26;22.67;78.16
66343;DHT22;53144;51.524;5.080;2022-09-13T10:06:17;22.91;78.46
66343;DHT22;53144;51.524;5.080;2022-09-13T10:09:27;22.87;76.72
66343;DHT22;53144;51.524;5.080;2022-09-13T10:11:54;23.00;76.21
66343;DHT22;53144;51.524;5.080;2022-09-13T10:14:45;23.15;76.78
66343;DHT22;53144;51.524;5.080;2022-09-13T10:17:27;23.08;76.99
66343;DHT22;53144;51.524;5.080;2022-09-13T10:20:02;23.13;77.14
66343;DHT22;53144;51.524;5.080;2022-09-13T10:22:30;23.39;75.89
66343;DHT22;53144;51.524;5.080;2022-09-13T10:25:13;23.95;74.97
66343;DHT22;53144;51.524;5.080;2022-09-13T10:27:41;23.95;72.94
66343;DHT22;53144;51.524;5.080;2022-09-13T10:30:30;23.98;73.29
66343;DHT22;53144;51.524;5.080;2022-09-13T10:32:56;24.35;72.21
66343;DHT22;53144;51.524;5.080;2022-09-13T10:35:23;24.21;71.35
66343;DHT22;53144;51.524;5.080;2022-09-13T10:37:48;24.14;71.65
66343;DHT22;53144;51.524;5.080;2022-09-13T10:42:54;24.87;69.14
66343;DHT22;53144;51.524;5.080;2022-09-13T10:45:26;24.57;73.37
66343;DHT22;53144;51.524;5.080;2022-09-13T10:47:54;23.94;74.43
66343;DHT22;53144;51.524;5.080;2022-09-13T10:50:24;23.63;74.59
66343;DHT22;53144;51.524;5.080;2022-09-13T10:52:52;23.20;76.24
66343;DHT22;53144;51.524;5.080;2022-09-13T10:57:48;22.64;76.79
66343;DHT22;53144;51.524;5.080;2022-09-13T11:00:22;23.22;76.62
66343;DHT22;53144;51.524;5.080;2022-09-13T11:03:23;24.49;73.64
66343;DHT22;53144;51.524;5.080;2022-09-13T11:06:17;26.50;66.44
66343;DHT22;53144;51.524;5.080;2022-09-13T11:09:18;27.43;62.05
66343;DHT22;53144;51.524;5.080;2022-09-13T11:17:41;26.67;64.03
66343;DHT22;53144;51.524;5.080;2022-09-13T11:23:04;26.43;64.19
66343;DHT22;53144;51.524;5.080;2022-09-13T11:28:37;27.32;62.81
66343;DHT22;53144;51.524;5.080;2022-09-13T11:33:55;26.17;65.00
66343;DHT22;53144;51.524;5.080;2022-09-13T11:39:48;26.27;62.29
66343;DHT22;53144;51.524;5.080;2022-09-13T11:50:41;24.55;69.48
66343;DHT22;53144;51.524;5.080;2022-09-13T11:55:47;26.07;66.29
66343;DHT22;53144;51.524;5.080;2022-09-13T11:58:20;25.41;67.46
66343;DHT22;53144;51.524;5.080;2022-09-13T12:01:08;24.57;68.75
66343;DHT22;53144;51.524;5.080;2022-09-13T12:08:47;26.58;65.01
66343;DHT22;53144;51.524;5.080;2022-09-13T12:11:24;27.51;62.08
66343;DHT22;53144;51.524;5.080;2022-09-13T12:14:05;27.59;62.32
66343;DHT22;53144;51.524;5.080;2022-09-13T12:16:39;26.29;63.25
66343;DHT22;53144;51.524;5.080;2022-09-13T12:19:20;26.40;62.66
66343;DHT22;53144;51.524;5.080;2022-09-13T12:21:48;27.91;60.03
66343;DHT22;53144;51.524;5.080;2022-09-13T12:24:17;28.49;56.52
66343;DHT22;53144;51.524;5.080;2022-09-13T12:26:49;29.31;58.14
66343;DHT22;53144;51.524;5.080;2022-09-13T12:29:42;29.27;56.40
66343;DHT22;53144;51.524;5.080;2022-09-13T12:32:09;28.46;58.42
66343;DHT22;53144;51.524;5.080;2022-09-13T12:34:40;26.16;64.93
66343;DHT22;53144;51.524;5.080;2022-09-13T12:37:56;25.89;66.82
66343;DHT22;53144;51.524;5.080;2022-09-13T12:48:17;24.87;69.58
66343;DHT22;53144;51.524;5.080;2022-09-13T12:51:05;25.35;67.74
66343;DHT22;53144;51.524;5.080;2022-09-13T12:54:07;26.33;67.30
66343;DHT22;53144;51.524;5.080;2022-09-13T13:00:36;26.94;62.19
66343;DHT22;53144;51.524;5.080;2022-09-13T13:05:42;27.18;62.90
66343;DHT22;53144;51.524;5.080;2022-09-13T13:11:01;26.21;65.21
66343;DHT22;53144;51.524;5.080;2022-09-13T13:13:41;26.61;63.89
66343;DHT22;53144;51.524;5.080;2022-09-13T13:16:29;26.27;64.86
66343;DHT22;53144;51.524;5.080;2022-09-13T13:19:04;25.89;66.46
66343;DHT22;53144;51.524;5.080;2022-09-13T13:21:37;25.65;66.46
66343;DHT22;53144;51.524;5.080;2022-09-13T13:26:49;27.53;60.76
66343;DHT22;53144;51.524;5.080;2022-09-13T13:29:27;27.20;62.44
66343;DHT22;53144;51.524;5.080;2022-09-13T13:36:50;26.50;62.30
66343;DHT22;53144;51.524;5.080;2022-09-13T13:41:59;25.89;64.64
66343;DHT22;53144;51.524;5.080;2022-09-13T13:57:38;24.30;72.03
66343;DHT22;53144;51.524;5.080;2022-09-13T14:00:13;24.29;73.57
66343;DHT22;53144;51.524;5.080;2022-09-13T14:16:35;23.81;72.30
66343;DHT22;53144;51.524;5.080;2022-09-13T14:19:14;23.84;72.68
66343;DHT22;53144;51.524;5.080;2022-09-13T14:21:41;23.84;72.01
66343;DHT22;53144;51.524;5.080;2022-09-13T14:24:22;23.71;72.25
66343;DHT22;53144;51.524;5.080;2022-09-13T14:26:51;23.87;72.34
66343;DHT22;53144;51.524;5.080;2022-09-13T14:29:20;23.58;72.11
66343;DHT22;53144;51.524;5.080;2022-09-13T14:31:50;23.46;72.28
66343;DHT22;53144;51.524;5.080;2022-09-13T14:34:24;23.51;74.25
66343;DHT22;53144;51.524;5.080;2022-09-13T14:36:59;23.61;72.92
66343;DHT22;53144;51.524;5.080;2022-09-13T14:39:26;23.74;71.67
66343;DHT22;53144;51.524;5.080;2022-09-13T14:42:15;23.67;71.90
66343;DHT22;53144;51.524;5.080;2022-09-13T14:44:44;23.61;72.38
66343;DHT22;53144;51.524;5.080;2022-09-13T14:50:01;23.47;73.53
66343;DHT22;53144;51.524;5.080;2022-09-13T14:52:35;23.43;74.11
66343;DHT22;53144;51.524;5.080;2022-09-13T14:55:07;23.34;73.32
66343;DHT22;53144;51.524;5.080;2022-09-13T14:57:40;23.29;73.45
66343;DHT22;53144;51.524;5.080;2022-09-13T15:00:19;23.30;73.58
66343;DHT22;53144;51.524;5.080;2022-09-13T15:02:58;23.34;73.34
66343;DHT22;53144;51.524;5.080;2022-09-13T15:05:29;23.30;73.11
66343;DHT22;53144;51.524;5.080;2022-09-13T15:07:55;23.37;73.29
66343;DHT22;53144;51.524;5.080;2022-09-13T15:10:24;23.24;73.54
66343;DHT22;53144;51.524;5.080;2022-09-13T15:17:58;23.19;73.61
66343;DHT22;53144;51.524;5.080;2022-09-13T15:20:27;23.22;74.49
66343;DHT22;53144;51.524;5.080;2022-09-13T15:22:53;23.39;74.72
66343;DHT22;53144;51.524;5.080;2022-09-13T15:25:25;23.33;74.18
66343;DHT22;53144;51.524;5.080;2022-09-13T15:27:52;23.39;74.24
66343;DHT22;53144;51.524;5.080;2022-09-13T15:30:38;23.46;74.06
66343;DHT22;53144;51.524;5.080;2022-09-13T15:33:21;22.98;74.86
66343;DHT22;53144;51.524;5.080;2022-09-13T15:35:47;22.84;74.66
66343;DHT22;53144;51.524;5.080;2022-09-13T15:40:45;22.88;74.78
66343;DHT22;53144;51.524;5.080;2022-09-13T15:43:11;22.75;74.58
66343;DHT22;53144;51.524;5.080;2022-09-13T15:45:36;22.78;74.85
66343;DHT22;53144;51.524;5.080;2022-09-13T15:48:03;22.88;75.25
66343;DHT22;53144;51.524;5.080;2022-09-13T15:50:31;22.85;75.88
66343;DHT22;53144;51.524;5.080;2022-09-13T15:52:59;22.61;75.79
66343;DHT22;53144;51.524;5.080;2022-09-13T15:55:25;22.61;75.69
66343;DHT22;53144;51.524;5.080;2022-09-13T15:57:52;22.48;75.81
66343;DHT22;53144;51.524;5.080;2022-09-13T16:00:23;22.43;75.62
66343;DHT22;53144;51.524;5.080;2022-09-13T16:02:49;22.44;76.34
66343;DHT22;53144;51.524;5.080;2022-09-13T16:05:15;22.54;76.35
66343;DHT22;53144;51.524;5.080;2022-09-13T16:07:41;22.40;75.18
66343;DHT22;53144;51.524;5.080;2022-09-13T16:10:21;22.36;75.18
66343;DHT22;53144;51.524;5.080;2022-09-13T16:12:47;22.20;75.41
66343;DHT22;53144;51.524;5.080;2022-09-13T16:15:13;22.31;75.72
66343;DHT22;53144;51.524;5.080;2022-09-13T16:17:39;22.36;75.82
66343;DHT22;53144;51.524;5.080;2022-09-13T16:20:06;22.13;75.08
66343;DHT22;53144;51.524;5.080;2022-09-13T16:22:33;22.10;76.42
66343;DHT22;53144;51.524;5.080;2022-09-13T16:24:58;21.86;77.00
66343;DHT22;53144;51.524;5.080;2022-09-13T16:27:24;21.89;78.29
66343;DHT22;53144;51.524;5.080;2022-09-13T16:29:52;21.72;77.13
66343;DHT22;53144;51.524;5.080;2022-09-13T16:32:19;21.76;79.16
66343;DHT22;53144;51.524;5.080;2022-09-13T16:34:45;21.46;77.54
66343;DHT22;53144;51.524;5.080;2022-09-13T16:37:16;21.48;78.19
66343;DHT22;53144;51.524;5.080;2022-09-13T16:39:42;21.58;77.20
66343;DHT22;53144;51.524;5.080;2022-09-13T16:42:09;21.56;77.78
66343;DHT22;53144;51.524;5.080;2022-09-13T16:44:34;21.51;77.00
66343;DHT22;53144;51.524;5.080;2022-09-13T16:47:00;21.44;77.55
66343;DHT22;53144;51.524;5.080;2022-09-13T16:49:25;21.44;78.88
66343;DHT22;53144;51.524;5.080;2022-09-13T16:51:51;21.37;81.46
66343;DHT22;53144;51.524;5.080;2022-09-13T16:54:17;21.34;80.53
66343;DHT22;53144;51.524;5.080;2022-09-13T16:56:42;21.12;79.69
66343;DHT22;53144;51.524;5.080;2022-09-13T16:59:08;21.12;80.59
66343;DHT22;53144;51.524;5.080;2022-09-13T17:01:34;21.07;82.02
66343;DHT22;53144;51.524;5.080;2022-09-13T17:03:59;20.98;82.28
66343;DHT22;53144;51.524;5.080;2022-09-13T17:06:25;20.95;80.92
66343;DHT22;53144;51.524;5.080;2022-09-13T17:08:57;20.86;79.76
66343;DHT22;53144;51.524;5.080;2022-09-13T17:11:26;20.79;84.62
66343;DHT22;53144;51.524;5.080;2022-09-13T17:13:52;20.86;80.70
66343;DHT22;53144;51.524;5.080;2022-09-13T17:16:29;20.77;79.77
66343;DHT22;53144;51.524;5.080;2022-09-13T17:18:57;20.76;80.65
66343;DHT22;53144;51.524;5.080;2022-09-13T17:21:23;20.65;78.14
66343;DHT22;53144;51.524;5.080;2022-09-13T17:23:49;20.65;80.53
66343;DHT22;53144;51.524;5.080;2022-09-13T17:26:14;20.67;79.26
66343;DHT22;53144;51.524;5.080;2022-09-13T17:28:40;20.60;80.09
66343;DHT22;53144;51.524;5.080;2022-09-13T17:31:06;20.59;79.77
66343;DHT22;53144;51.524;5.080;2022-09-13T17:33:31;20.46;78.90
66343;DHT22;53144;51.524;5.080;2022-09-13T17:35:58;20.47;81.01
66343;DHT22;53144;51.524;5.080;2022-09-13T17:38:24;20.42;82.07
66343;DHT22;53144;51.524;5.080;2022-09-13T17:41:04;20.36;81.31
66343;DHT22;53144;51.524;5.080;2022-09-13T17:43:30;20.39;81.61
66343;DHT22;53144;51.524;5.080;2022-09-13T17:45:56;20.30;80.45
66343;DHT22;53144;51.524;5.080;2022-09-13T17:48:22;20.25;82.10
66343;DHT22;53144;51.524;5.080;2022-09-13T17:50:47;20.12;82.97
66343;DHT22;53144;51.524;5.080;2022-09-13T17:53:13;20.11;80.60
66343;DHT22;53144;51.524;5.080;2022-09-13T17:55:48;20.18;81.83
66343;DHT22;53144;51.524;5.080;2022-09-13T17:58:14;20.07;79.43
66343;DHT22;53144;51.524;5.080;2022-09-13T18:00:40;20.05;78.94
66343;DHT22;53144;51.524;5.080;2022-09-13T18:03:05;19.99;80.04
66343;DHT22;53144;51.524;5.080;2022-09-13T18:05:31;19.92;79.48
66343;DHT22;53144;51.524;5.080;2022-09-13T18:07:56;19.73;83.75
66343;DHT22;53144;51.524;5.080;2022-09-13T18:10:21;19.79;81.24
66343;DHT22;53144;51.524;5.080;2022-09-13T18:12:47;19.71;82.51
66343;DHT22;53144;51.524;5.080;2022-09-13T18:15:15;19.60;80.60
66343;DHT22;53144;51.524;5.080;2022-09-13T18:17:47;19.54;80.45
66343;DHT22;53144;51.524;5.080;2022-09-13T18:20:12;19.41;83.06
66343;DHT22;53144;51.524;5.080;2022-09-13T18:22:38;19.36;85.13
66343;DHT22;53144;51.524;5.080;2022-09-13T18:25:04;19.30;83.96
66343;DHT22;53144;51.524;5.080;2022-09-13T18:27:29;19.24;81.73
66343;DHT22;53144;51.524;5.080;2022-09-13T18:29:55;19.20;84.03
66343;DHT22;53144;51.524;5.080;2022-09-13T18:32:21;19.16;86.02
66343;DHT22;53144;51.524;5.080;2022-09-13T18:34:52;19.20;85.10
66343;DHT22;53144;51.524;5.080;2022-09-13T18:37:20;19.15;85.32